To NAV CANADA Home Page Login to a new session Search on AWWS site Feedback and Comments Disclaimer Vers la page française équivalente Tips FAQ What's new on the site To the Forecasts and Observations / NOTAM section To "File a Flight Plan" website Publications and other links Update of the User's profile FIC Telephone Numbers My Weather Data Folder Route Weather Data Regional Weather Data Local Weather Data To the Forecasts and Observations / NOTAM section
Request Generated 08/03/2015 at 21:19:39 UTC . Weather information available at that time is displayed.

METAR/TAF

COLD LAKE/GROUP CAPTAIN R.W. MCNAIR/AB    

METAR CYOD 032100Z 12011G16KT 15SM FEW057 SCT130 BKN250 27/12 A2992 RMK CU1AC3CC1 SLP132=
SPECI CYOD 032032Z 11011KT 15SM FEW057 SCT130 BKN250 26/12 A2992 RMK CU1AC3CC1 CU TR SLP133=
SPECI CYOD 032017Z 12012KT 15SM -SHRA FEW057 SCT110 BKN240 25/12 A2992 RMK CU1AC2CI1 SLP135=
METAR CYOD 032000Z 14010G15KT 15SM SCT120 BKN240 26/11 A2993 RMK AC2CI1 SLP136=
METAR CYOD 031900Z 11009G15KT 15SM SCT140 BKN240 25/13 A2994 RMK AC2CI1 SLP140=

TAF CYOD 031730Z 0318/0418 VRB03KT P6SM SCT100 BKN250
FM031900 12008KT P6SM BKN090 TEMPO 0319/0401 P6SM -SHRA PROB30
0320/0401 6SM TSRA BR BKN080CB
FM040100 12005KT P6SM SCT100
FM041200 14010KT P6SM BKN080 OVC180
RMK NXT FCST BY 040000Z=
Your time UTC time
Weather data provided by Environment Canada and NAV CANADA